EETN

Tallinn/Ulemiste

Airport
ICAO code
EETN
Summary
ICAO Region
EUR
ICAO Territory
Location

Tallinn,

Coordinates
59° 24' 59" N , 24° 47' 57" E
KCC
Dfb
Metar
Observation
EETN 152120Z 11006KT CAVOK 22/18 Q1017 NOSIG
Station
Tallinn
Date/Time
2022-08-15 21:20:00
Wind direction
110°
Wind speed
06 kts
Lowest cloud amount
clouds and visibility OK
Temperature
22°C
Dew point
18°C
Humidity
78%
QNH
1017 hPa
Weather condition
n/a

Description

International airport serving capital city of Estonia.

Climatology

Humid Continental climate (Köppen climate classification Dfb) - Variable weather patterns and a large seasonal temperature variance. Summers are often warm and humid with frequent thunderstorms and winters can be very cold with frequent snowfall and persistent snow cover.

Runways

Designator Length Width Surface Rops
8/26 3070 45 ASP Yes/Yes

Airport map

Aerial View

SKYbrary Partners:

Safety knowledge contributed by: